sensor_id;sensor_type;location;lat;lon;timestamp;temperature;humidity
38798;SHT11;24546;52.240;16.826;2023-04-06T00:02:59;2.00;97.00
38798;SHT11;24546;52.240;16.826;2023-04-06T00:08:00;2.00;96.60
38798;SHT11;24546;52.240;16.826;2023-04-06T00:13:01;1.90;97.00
38798;SHT11;24546;52.240;16.826;2023-04-06T00:18:02;1.90;97.20
38798;SHT11;24546;52.240;16.826;2023-04-06T00:23:03;1.90;97.30
38798;SHT11;24546;52.240;16.826;2023-04-06T00:28:04;1.90;97.30
38798;SHT11;24546;52.240;16.826;2023-04-06T00:33:05;1.80;97.60
38798;SHT11;24546;52.240;16.826;2023-04-06T00:38:06;1.80;97.70
38798;SHT11;24546;52.240;16.826;2023-04-06T00:43:07;1.80;98.10
38798;SHT11;24546;52.240;16.826;2023-04-06T00:48:09;1.70;98.20
38798;SHT11;24546;52.240;16.826;2023-04-06T00:53:10;1.70;98.30
38798;SHT11;24546;52.240;16.826;2023-04-06T00:58:11;1.70;98.50
38798;SHT11;24546;52.240;16.826;2023-04-06T01:03:21;1.70;98.30
38798;SHT11;24546;52.240;16.826;2023-04-06T01:08:22;1.70;98.40
38798;SHT11;24546;52.240;16.826;2023-04-06T01:13:27;1.50;98.30
38798;SHT11;24546;52.240;16.826;2023-04-06T01:18:33;1.60;98.30
38798;SHT11;24546;52.240;16.826;2023-04-06T01:23:48;1.50;98.50
38798;SHT11;24546;52.240;16.826;2023-04-06T01:28:55;1.40;98.80
38798;SHT11;24546;52.240;16.826;2023-04-06T01:34:04;1.20;99.00
38798;SHT11;24546;52.240;16.826;2023-04-06T01:39:05;1.30;99.10
38798;SHT11;24546;52.240;16.826;2023-04-06T01:44:10;1.40;99.40
38798;SHT11;24546;52.240;16.826;2023-04-06T01:49:11;1.30;99.40
38798;SHT11;24546;52.240;16.826;2023-04-06T01:54:14;1.20;99.30
38798;SHT11;24546;52.240;16.826;2023-04-06T01:59:51;1.20;99.30
38798;SHT11;24546;52.240;16.826;2023-04-06T02:05:04;1.20;99.50
38798;SHT11;24546;52.240;16.826;2023-04-06T02:10:10;1.10;99.60
38798;SHT11;24546;52.240;16.826;2023-04-06T02:15:12;1.10;99.90
38798;SHT11;24546;52.240;16.826;2023-04-06T02:20:14;1.00;99.90
38798;SHT11;24546;52.240;16.826;2023-04-06T02:25:15;1.00;99.90
38798;SHT11;24546;52.240;16.826;2023-04-06T02:30:16;1.00;99.90
38798;SHT11;24546;52.240;16.826;2023-04-06T02:35:17;1.00;99.90
38798;SHT11;24546;52.240;16.826;2023-04-06T02:40:18;0.90;99.90
38798;SHT11;24546;52.240;16.826;2023-04-06T02:45:19;0.90;99.90
38798;SHT11;24546;52.240;16.826;2023-04-06T02:50:22;0.90;99.90
38798;SHT11;24546;52.240;16.826;2023-04-06T02:55:30;0.80;99.90
38798;SHT11;24546;52.240;16.826;2023-04-06T03:00:31;0.90;99.90
38798;SHT11;24546;52.240;16.826;2023-04-06T03:05:32;0.80;99.90
38798;SHT11;24546;52.240;16.826;2023-04-06T03:10:34;0.80;99.90
38798;SHT11;24546;52.240;16.826;2023-04-06T03:15:36;0.70;99.90
38798;SHT11;24546;52.240;16.826;2023-04-06T03:20:46;0.70;99.90
38798;SHT11;24546;52.240;16.826;2023-04-06T03:25:50;0.70;99.90
38798;SHT11;24546;52.240;16.826;2023-04-06T03:30:53;0.70;99.90
38798;SHT11;24546;52.240;16.826;2023-04-06T03:36:15;0.70;99.90
38798;SHT11;24546;52.240;16.826;2023-04-06T03:41:17;0.70;99.90
38798;SHT11;24546;52.240;16.826;2023-04-06T03:46:26;0.60;99.90
38798;SHT11;24546;52.240;16.826;2023-04-06T03:51:30;0.60;99.90
38798;SHT11;24546;52.240;16.826;2023-04-06T03:56:31;0.60;99.90
38798;SHT11;24546;52.240;16.826;2023-04-06T04:01:32;0.50;99.90
38798;SHT11;24546;52.240;16.826;2023-04-06T04:06:33;0.50;99.90
38798;SHT11;24546;52.240;16.826;2023-04-06T04:11:33;0.50;99.90
38798;SHT11;24546;52.240;16.826;2023-04-06T04:16:34;0.50;99.90
38798;SHT11;24546;52.240;16.826;2023-04-06T04:21:41;0.50;99.90
38798;SHT11;24546;52.240;16.826;2023-04-06T04:26:42;0.40;99.90
38798;SHT11;24546;52.240;16.826;2023-04-06T04:31:43;0.40;99.90
38798;SHT11;24546;52.240;16.826;2023-04-06T04:36:51;0.30;99.90
38798;SHT11;24546;52.240;16.826;2023-04-06T04:41:59;0.20;99.90
38798;SHT11;24546;52.240;16.826;2023-04-06T04:47:00;0.20;99.90
38798;SHT11;24546;52.240;16.826;2023-04-06T04:52:11;0.30;99.90
38798;SHT11;24546;52.240;16.826;2023-04-06T04:57:30;0.50;99.90
38798;SHT11;24546;52.240;16.826;2023-04-06T05:02:31;0.70;99.90
38798;SHT11;24546;52.240;16.826;2023-04-06T05:07:50;0.90;99.90
38798;SHT11;24546;52.240;16.826;2023-04-06T05:13:01;1.30;99.90
38798;SHT11;24546;52.240;16.826;2023-04-06T05:18:02;1.50;99.90
38798;SHT11;24546;52.240;16.826;2023-04-06T05:23:07;1.80;99.90
38798;SHT11;24546;52.240;16.826;2023-04-06T05:28:08;2.10;99.90
38798;SHT11;24546;52.240;16.826;2023-04-06T05:33:12;2.40;99.90
38798;SHT11;24546;52.240;16.826;2023-04-06T05:38:27;2.50;99.90
38798;SHT11;24546;52.240;16.826;2023-04-06T05:43:31;3.00;99.90
38798;SHT11;24546;52.240;16.826;2023-04-06T05:48:34;3.40;99.90
38798;SHT11;24546;52.240;16.826;2023-04-06T05:53:36;3.70;99.90
38798;SHT11;24546;52.240;16.826;2023-04-06T05:58:39;3.70;99.70
38798;SHT11;24546;52.240;16.826;2023-04-06T06:03:42;3.90;99.40
38798;SHT11;24546;52.240;16.826;2023-04-06T06:08:43;4.20;99.30
38798;SHT11;24546;52.240;16.826;2023-04-06T06:13:48;4.50;98.60
38798;SHT11;24546;52.240;16.826;2023-04-06T06:18:49;4.80;98.30
38798;SHT11;24546;52.240;16.826;2023-04-06T06:23:51;5.20;97.20
38798;SHT11;24546;52.240;16.826;2023-04-06T06:28:54;5.40;97.50
38798;SHT11;24546;52.240;16.826;2023-04-06T06:33:55;5.80;96.80
38798;SHT11;24546;52.240;16.826;2023-04-06T06:38:57;6.30;96.00
38798;SHT11;24546;52.240;16.826;2023-04-06T06:43:58;6.60;95.00
38798;SHT11;24546;52.240;16.826;2023-04-06T06:49:00;7.00;94.80
38798;SHT11;24546;52.240;16.826;2023-04-06T06:54:01;7.10;94.10
38798;SHT11;24546;52.240;16.826;2023-04-06T06:59:02;7.20;93.60
38798;SHT11;24546;52.240;16.826;2023-04-06T07:04:03;7.30;93.80
38798;SHT11;24546;52.240;16.826;2023-04-06T07:09:04;7.60;93.30
38798;SHT11;24546;52.240;16.826;2023-04-06T07:14:05;7.80;92.30
38798;SHT11;24546;52.240;16.826;2023-04-06T07:19:05;8.20;92.00
38798;SHT11;24546;52.240;16.826;2023-04-06T07:24:06;8.60;91.50
38798;SHT11;24546;52.240;16.826;2023-04-06T07:29:07;8.80;91.10
38798;SHT11;24546;52.240;16.826;2023-04-06T07:34:09;8.90;90.60
38798;SHT11;24546;52.240;16.826;2023-04-06T07:39:11;8.80;89.90
38798;SHT11;24546;52.240;16.826;2023-04-06T07:44:12;8.90;88.80
38798;SHT11;24546;52.240;16.826;2023-04-06T07:49:13;9.10;87.90
38798;SHT11;24546;52.240;16.826;2023-04-06T07:54:14;9.20;86.40
38798;SHT11;24546;52.240;16.826;2023-04-06T07:59:15;9.50;85.10
38798;SHT11;24546;52.240;16.826;2023-04-06T08:04:16;9.90;83.30
38798;SHT11;24546;52.240;16.826;2023-04-06T08:09:17;10.70;83.30
38798;SHT11;24546;52.240;16.826;2023-04-06T08:14:18;10.90;82.90
38798;SHT11;24546;52.240;16.826;2023-04-06T08:19:19;11.40;78.60
38798;SHT11;24546;52.240;16.826;2023-04-06T08:24:19;11.60;78.40
38798;SHT11;24546;52.240;16.826;2023-04-06T08:29:20;11.50;75.80
38798;SHT11;24546;52.240;16.826;2023-04-06T08:34:21;12.20;76.70
38798;SHT11;24546;52.240;16.826;2023-04-06T08:39:23;12.80;74.30
38798;SHT11;24546;52.240;16.826;2023-04-06T08:44:26;13.10;72.00
38798;SHT11;24546;52.240;16.826;2023-04-06T08:49:27;13.00;73.10
38798;SHT11;24546;52.240;16.826;2023-04-06T08:54:28;13.30;71.90
38798;SHT11;24546;52.240;16.826;2023-04-06T08:59:28;13.90;72.40
38798;SHT11;24546;52.240;16.826;2023-04-06T09:04:29;13.60;67.60
38798;SHT11;24546;52.240;16.826;2023-04-06T09:09:31;13.80;71.00
38798;SHT11;24546;52.240;16.826;2023-04-06T09:19:48;13.50;69.60
38798;SHT11;24546;52.240;16.826;2023-04-06T09:24:50;13.80;68.30
38798;SHT11;24546;52.240;16.826;2023-04-06T09:29:51;14.20;69.10
38798;SHT11;24546;52.240;16.826;2023-04-06T09:35:06;14.80;67.20
38798;SHT11;24546;52.240;16.826;2023-04-06T09:40:08;14.80;67.20
38798;SHT11;24546;52.240;16.826;2023-04-06T09:45:09;14.30;69.00
38798;SHT11;24546;52.240;16.826;2023-04-06T09:50:10;14.60;67.60
38798;SHT11;24546;52.240;16.826;2023-04-06T09:55:13;14.00;66.30
38798;SHT11;24546;52.240;16.826;2023-04-06T10:00:17;14.20;65.20
38798;SHT11;24546;52.240;16.826;2023-04-06T10:05:21;14.20;66.00
38798;SHT11;24546;52.240;16.826;2023-04-06T10:10:22;14.50;65.50
38798;SHT11;24546;52.240;16.826;2023-04-06T10:15:22;14.90;66.00
38798;SHT11;24546;52.240;16.826;2023-04-06T10:25:26;15.10;64.60
38798;SHT11;24546;52.240;16.826;2023-04-06T10:30:27;14.90;64.00
38798;SHT11;24546;52.240;16.826;2023-04-06T10:35:37;14.00;65.90
38798;SHT11;24546;52.240;16.826;2023-04-06T10:40:39;13.80;65.20
38798;SHT11;24546;52.240;16.826;2023-04-06T10:45:40;13.80;65.30
38798;SHT11;24546;52.240;16.826;2023-04-06T10:50:43;14.50;64.10
38798;SHT11;24546;52.240;16.826;2023-04-06T10:55:45;14.80;64.30
38798;SHT11;24546;52.240;16.826;2023-04-06T11:00:46;15.20;63.40
38798;SHT11;24546;52.240;16.826;2023-04-06T11:05:48;15.50;64.50
38798;SHT11;24546;52.240;16.826;2023-04-06T11:10:49;15.00;65.20
38798;SHT11;24546;52.240;16.826;2023-04-06T11:15:50;14.60;64.80
38798;SHT11;24546;52.240;16.826;2023-04-06T11:20:50;14.70;64.10
38798;SHT11;24546;52.240;16.826;2023-04-06T11:25:52;14.90;64.20
38798;SHT11;24546;52.240;16.826;2023-04-06T11:30:53;14.90;63.30
38798;SHT11;24546;52.240;16.826;2023-04-06T11:35:56;15.20;62.80
38798;SHT11;24546;52.240;16.826;2023-04-06T11:40:57;15.30;62.40
38798;SHT11;24546;52.240;16.826;2023-04-06T11:45:59;15.40;62.10
38798;SHT11;24546;52.240;16.826;2023-04-06T11:51:01;15.00;61.60
38798;SHT11;24546;52.240;16.826;2023-04-06T11:56:01;15.40;61.90
38798;SHT11;24546;52.240;16.826;2023-04-06T12:01:03;15.60;62.80
38798;SHT11;24546;52.240;16.826;2023-04-06T12:06:04;15.80;61.80
38798;SHT11;24546;52.240;16.826;2023-04-06T12:11:05;15.20;59.60
38798;SHT11;24546;52.240;16.826;2023-04-06T12:16:05;14.20;63.30
38798;SHT11;24546;52.240;16.826;2023-04-06T12:21:06;14.60;63.00
38798;SHT11;24546;52.240;16.826;2023-04-06T12:26:07;14.60;61.40
38798;SHT11;24546;52.240;16.826;2023-04-06T12:31:13;14.90;61.70
38798;SHT11;24546;52.240;16.826;2023-04-06T12:36:15;15.40;61.60
38798;SHT11;24546;52.240;16.826;2023-04-06T12:41:19;15.80;63.20
38798;SHT11;24546;52.240;16.826;2023-04-06T12:46:20;15.40;60.20
38798;SHT11;24546;52.240;16.826;2023-04-06T12:51:21;14.90;62.80
38798;SHT11;24546;52.240;16.826;2023-04-06T12:56:22;14.30;61.90
38798;SHT11;24546;52.240;16.826;2023-04-06T13:01:23;14.00;62.30
38798;SHT11;24546;52.240;16.826;2023-04-06T13:06:24;14.30;65.90
38798;SHT11;24546;52.240;16.826;2023-04-06T13:11:27;14.50;63.50
38798;SHT11;24546;52.240;16.826;2023-04-06T13:16:28;14.70;61.60
38798;SHT11;24546;52.240;16.826;2023-04-06T13:21:30;14.80;62.30
38798;SHT11;24546;52.240;16.826;2023-04-06T13:26:31;14.80;64.00
38798;SHT11;24546;52.240;16.826;2023-04-06T13:31:31;14.10;63.10
38798;SHT11;24546;52.240;16.826;2023-04-06T13:36:32;13.50;65.00
38798;SHT11;24546;52.240;16.826;2023-04-06T13:41:33;14.20;66.10
38798;SHT11;24546;52.240;16.826;2023-04-06T13:46:34;14.80;65.30
38798;SHT11;24546;52.240;16.826;2023-04-06T13:51:35;14.60;62.80
38798;SHT11;24546;52.240;16.826;2023-04-06T13:56:35;14.50;62.20
38798;SHT11;24546;52.240;16.826;2023-04-06T14:01:36;14.30;63.30
38798;SHT11;24546;52.240;16.826;2023-04-06T14:06:37;14.60;62.50
38798;SHT11;24546;52.240;16.826;2023-04-06T14:11:38;13.80;62.60
38798;SHT11;24546;52.240;16.826;2023-04-06T14:16:39;13.90;63.50
38798;SHT11;24546;52.240;16.826;2023-04-06T14:21:41;14.30;63.20
38798;SHT11;24546;52.240;16.826;2023-04-06T14:26:42;14.00;64.80
38798;SHT11;24546;52.240;16.826;2023-04-06T14:31:44;14.00;63.80
38798;SHT11;24546;52.240;16.826;2023-04-06T14:36:45;13.70;65.10
38798;SHT11;24546;52.240;16.826;2023-04-06T14:41:46;13.60;63.60
38798;SHT11;24546;52.240;16.826;2023-04-06T14:46:48;13.50;63.60
38798;SHT11;24546;52.240;16.826;2023-04-06T14:51:48;13.00;64.10
38798;SHT11;24546;52.240;16.826;2023-04-06T14:56:49;12.40;65.60
38798;SHT11;24546;52.240;16.826;2023-04-06T15:01:50;12.10;66.80
38798;SHT11;24546;52.240;16.826;2023-04-06T15:06:51;12.30;66.20
38798;SHT11;24546;52.240;16.826;2023-04-06T15:11:52;12.50;66.60
38798;SHT11;24546;52.240;16.826;2023-04-06T15:16:53;12.50;65.30
38798;SHT11;24546;52.240;16.826;2023-04-06T15:21:54;12.40;66.80
38798;SHT11;24546;52.240;16.826;2023-04-06T15:26:55;12.30;66.60
38798;SHT11;24546;52.240;16.826;2023-04-06T15:31:56;12.20;66.70
38798;SHT11;24546;52.240;16.826;2023-04-06T15:37:00;11.80;67.10
38798;SHT11;24546;52.240;16.826;2023-04-06T15:42:01;11.60;67.20
38798;SHT11;24546;52.240;16.826;2023-04-06T15:47:02;11.40;68.50
38798;SHT11;24546;52.240;16.826;2023-04-06T15:52:03;11.20;68.80
38798;SHT11;24546;52.240;16.826;2023-04-06T15:57:04;10.90;68.60
38798;SHT11;24546;52.240;16.826;2023-04-06T16:02:06;10.40;69.40
38798;SHT11;24546;52.240;16.826;2023-04-06T16:07:06;11.00;70.70
38798;SHT11;24546;52.240;16.826;2023-04-06T16:12:07;11.70;68.30
38798;SHT11;24546;52.240;16.826;2023-04-06T16:17:09;11.80;67.60
38798;SHT11;24546;52.240;16.826;2023-04-06T16:22:10;11.50;67.80
38798;SHT11;24546;52.240;16.826;2023-04-06T16:27:11;11.50;70.20
38798;SHT11;24546;52.240;16.826;2023-04-06T16:32:11;11.20;68.70
38798;SHT11;24546;52.240;16.826;2023-04-06T16:37:12;10.80;69.10
38798;SHT11;24546;52.240;16.826;2023-04-06T16:42:13;10.60;70.20
38798;SHT11;24546;52.240;16.826;2023-04-06T16:47:16;11.00;70.60
38798;SHT11;24546;52.240;16.826;2023-04-06T16:52:17;11.20;69.50
38798;SHT11;24546;52.240;16.826;2023-04-06T16:57:18;11.00;69.90
38798;SHT11;24546;52.240;16.826;2023-04-06T17:02:20;10.90;70.00
38798;SHT11;24546;52.240;16.826;2023-04-06T17:07:20;11.00;70.50
38798;SHT11;24546;52.240;16.826;2023-04-06T17:12:25;11.00;71.00
38798;SHT11;24546;52.240;16.826;2023-04-06T17:17:25;10.70;70.90
38798;SHT11;24546;52.240;16.826;2023-04-06T17:22:26;10.40;71.40
38798;SHT11;24546;52.240;16.826;2023-04-06T17:27:27;10.70;71.30
38798;SHT11;24546;52.240;16.826;2023-04-06T17:32:28;10.10;71.60
38798;SHT11;24546;52.240;16.826;2023-04-06T17:37:29;10.00;72.70
38798;SHT11;24546;52.240;16.826;2023-04-06T17:42:30;9.90;72.60
38798;SHT11;24546;52.240;16.826;2023-04-06T17:47:31;10.00;73.00
38798;SHT11;24546;52.240;16.826;2023-04-06T17:52:32;9.80;73.10
38798;SHT11;24546;52.240;16.826;2023-04-06T17:57:32;9.60;73.30
38798;SHT11;24546;52.240;16.826;2023-04-06T18:02:33;9.70;73.10
38798;SHT11;24546;52.240;16.826;2023-04-06T18:07:34;9.60;73.40
38798;SHT11;24546;52.240;16.826;2023-04-06T18:12:36;9.60;74.30
38798;SHT11;24546;52.240;16.826;2023-04-06T18:17:37;9.30;75.20
38798;SHT11;24546;52.240;16.826;2023-04-06T18:22:37;9.50;75.80
38798;SHT11;24546;52.240;16.826;2023-04-06T18:27:39;9.30;78.00
38798;SHT11;24546;52.240;16.826;2023-04-06T18:32:40;9.20;78.10
38798;SHT11;24546;52.240;16.826;2023-04-06T18:37:40;9.00;79.60
38798;SHT11;24546;52.240;16.826;2023-04-06T18:42:41;8.80;78.80
38798;SHT11;24546;52.240;16.826;2023-04-06T18:47:42;8.70;78.90
38798;SHT11;24546;52.240;16.826;2023-04-06T18:52:42;8.50;79.90
38798;SHT11;24546;52.240;16.826;2023-04-06T18:57:44;8.40;80.80
38798;SHT11;24546;52.240;16.826;2023-04-06T19:02:45;8.20;80.50
38798;SHT11;24546;52.240;16.826;2023-04-06T19:07:46;8.10;80.40
38798;SHT11;24546;52.240;16.826;2023-04-06T19:12:51;8.00;80.30
38798;SHT11;24546;52.240;16.826;2023-04-06T19:17:52;7.90;83.00
38798;SHT11;24546;52.240;16.826;2023-04-06T19:22:53;7.80;82.10
38798;SHT11;24546;52.240;16.826;2023-04-06T19:27:53;7.70;83.30
38798;SHT11;24546;52.240;16.826;2023-04-06T19:32:54;7.70;84.80
38798;SHT11;24546;52.240;16.826;2023-04-06T19:37:55;7.70;85.40
38798;SHT11;24546;52.240;16.826;2023-04-06T19:42:56;7.60;85.30
38798;SHT11;24546;52.240;16.826;2023-04-06T19:47:57;8.00;85.30
38798;SHT11;24546;52.240;16.826;2023-04-06T19:52:57;7.80;86.60
38798;SHT11;24546;52.240;16.826;2023-04-06T19:57:59;7.70;86.20
38798;SHT11;24546;52.240;16.826;2023-04-06T20:03:00;7.80;86.20
38798;SHT11;24546;52.240;16.826;2023-04-06T20:08:01;7.90;86.70
38798;SHT11;24546;52.240;16.826;2023-04-06T20:13:01;8.00;86.90
38798;SHT11;24546;52.240;16.826;2023-04-06T20:18:02;8.10;86.90
38798;SHT11;24546;52.240;16.826;2023-04-06T20:23:03;8.10;87.50
38798;SHT11;24546;52.240;16.826;2023-04-06T20:28:04;8.10;87.60
38798;SHT11;24546;52.240;16.826;2023-04-06T20:33:04;8.20;86.90
38798;SHT11;24546;52.240;16.826;2023-04-06T20:38:05;8.10;86.00
38798;SHT11;24546;52.240;16.826;2023-04-06T20:43:06;8.10;86.40
38798;SHT11;24546;52.240;16.826;2023-04-06T20:48:09;8.20;86.40
38798;SHT11;24546;52.240;16.826;2023-04-06T20:53:11;8.20;85.80
38798;SHT11;24546;52.240;16.826;2023-04-06T20:58:13;8.20;86.50
38798;SHT11;24546;52.240;16.826;2023-04-06T21:03:15;8.20;87.60
38798;SHT11;24546;52.240;16.826;2023-04-06T21:08:16;8.20;88.30
38798;SHT11;24546;52.240;16.826;2023-04-06T21:13:17;8.20;87.50
38798;SHT11;24546;52.240;16.826;2023-04-06T21:18:19;8.00;86.80
38798;SHT11;24546;52.240;16.826;2023-04-06T21:23:20;7.90;86.20
38798;SHT11;24546;52.240;16.826;2023-04-06T21:28:22;7.80;87.40
38798;SHT11;24546;52.240;16.826;2023-04-06T21:33:23;7.90;87.40
38798;SHT11;24546;52.240;16.826;2023-04-06T21:38:24;7.70;87.60
38798;SHT11;24546;52.240;16.826;2023-04-06T21:43:25;7.60;87.90
38798;SHT11;24546;52.240;16.826;2023-04-06T21:48:26;7.60;88.70
38798;SHT11;24546;52.240;16.826;2023-04-06T21:53:27;7.60;89.00
38798;SHT11;24546;52.240;16.826;2023-04-06T21:58:27;7.40;90.70
38798;SHT11;24546;52.240;16.826;2023-04-06T22:03:28;7.10;91.90
38798;SHT11;24546;52.240;16.826;2023-04-06T22:08:30;7.20;92.60
38798;SHT11;24546;52.240;16.826;2023-04-06T22:13:31;7.50;92.40
38798;SHT11;24546;52.240;16.826;2023-04-06T22:18:32;7.70;92.10
38798;SHT11;24546;52.240;16.826;2023-04-06T22:23:32;7.90;92.30
38798;SHT11;24546;52.240;16.826;2023-04-06T22:28:34;7.80;91.80
38798;SHT11;24546;52.240;16.826;2023-04-06T22:33:35;7.70;91.80
38798;SHT11;24546;52.240;16.826;2023-04-06T22:38:35;7.60;92.30
38798;SHT11;24546;52.240;16.826;2023-04-06T22:43:36;7.50;92.10
38798;SHT11;24546;52.240;16.826;2023-04-06T22:48:37;7.60;92.20
38798;SHT11;24546;52.240;16.826;2023-04-06T22:53:38;7.50;92.20
38798;SHT11;24546;52.240;16.826;2023-04-06T22:58:38;7.60;92.10
38798;SHT11;24546;52.240;16.826;2023-04-06T23:03:39;7.30;92.20
38798;SHT11;24546;52.240;16.826;2023-04-06T23:08:40;7.30;92.30
38798;SHT11;24546;52.240;16.826;2023-04-06T23:13:41;7.30;92.10
38798;SHT11;24546;52.240;16.826;2023-04-06T23:18:41;7.10;92.40
38798;SHT11;24546;52.240;16.826;2023-04-06T23:23:42;7.10;93.00
38798;SHT11;24546;52.240;16.826;2023-04-06T23:28:43;7.00;93.10
38798;SHT11;24546;52.240;16.826;2023-04-06T23:33:44;6.90;94.30
38798;SHT11;24546;52.240;16.826;2023-04-06T23:38:45;6.60;94.80
38798;SHT11;24546;52.240;16.826;2023-04-06T23:43:45;6.50;95.50
38798;SHT11;24546;52.240;16.826;2023-04-06T23:48:46;6.60;96.00
38798;SHT11;24546;52.240;16.826;2023-04-06T23:53:47;6.80;96.10
38798;SHT11;24546;52.240;16.826;2023-04-06T23:58:48;6.90;96.40
